createdAt,value
2023-01-17T00:00:58.173Z,97648.77
2023-01-17T00:07:00.576Z,97638.32
2023-01-17T00:13:04.252Z,97630.12
2023-01-17T00:19:08.193Z,97621.48
2023-01-17T00:25:10.227Z,97619.95
2023-01-17T00:30:46.625Z,97616.95
2023-01-17T00:36:29.726Z,97610.70
2023-01-17T00:42:12.830Z,97603.95
2023-01-17T00:48:14.354Z,97590.16
2023-01-17T00:54:18.862Z,97590.88
2023-01-17T01:00:21.057Z,97590.38
2023-01-17T01:06:22.982Z,97589.18
2023-01-17T01:12:24.762Z,97588.63
2023-01-17T01:18:25.411Z,97588.08
2023-01-17T01:24:27.706Z,97583.79
2023-01-17T01:30:29.996Z,97577.37
2023-01-17T01:36:26.925Z,97575.70
2023-01-17T01:42:30.389Z,97569.59
2023-01-17T01:48:42.965Z,97567.34
2023-01-17T01:54:55.223Z,97555.70
2023-01-17T02:00:58.912Z,97548.38
2023-01-17T02:07:05.662Z,97550.00
2023-01-17T02:12:53.005Z,97543.33
2023-01-17T02:19:01.143Z,97544.45
2023-01-17T02:25:10.332Z,97530.75
2023-01-17T02:31:20.058Z,97534.69
2023-01-17T02:37:23.522Z,97531.68
2023-01-17T02:43:26.892Z,97536.35
2023-01-17T02:49:30.604Z,97533.16
2023-01-17T02:55:39.793Z,97541.08
2023-01-17T03:01:49.493Z,97538.30
2023-01-17T03:07:52.964Z,97549.01
2023-01-17T03:13:56.745Z,97545.02
2023-01-17T03:20:00.200Z,97543.49
2023-01-17T03:26:03.670Z,97547.39
2023-01-17T03:32:07.031Z,97546.04
2023-01-17T03:38:10.624Z,97537.58
2023-01-17T03:44:13.999Z,97537.73
2023-01-17T03:50:17.405Z,97543.35
2023-01-17T03:56:20.771Z,97544.27
2023-01-17T04:02:23.035Z,97545.23
2023-01-17T04:08:26.731Z,97549.58
2023-01-17T04:14:30.150Z,97554.56
2023-01-17T04:20:33.772Z,97559.11
2023-01-17T04:26:37.144Z,97554.10
2023-01-17T04:32:40.813Z,97563.33
2023-01-17T04:38:44.232Z,97562.41
2023-01-17T04:44:47.776Z,97567.15
2023-01-17T04:50:41.494Z,97572.98
2023-01-17T04:56:47.950Z,97581.95
2023-01-17T05:02:51.409Z,97593.11
2023-01-17T05:08:53.543Z,97591.84
2023-01-17T05:14:57.144Z,97593.32
2023-01-17T05:20:48.118Z,97602.23
2023-01-17T05:26:30.016Z,97612.42
2023-01-17T05:32:12.726Z,97619.02
2023-01-17T05:38:01.234Z,97629.21
2023-01-17T05:43:24.630Z,97635.66
2023-01-17T05:49:07.987Z,97644.33
2023-01-17T05:54:37.042Z,97643.95
2023-01-17T06:00:03.917Z,97657.88
2023-01-17T06:05:57.179Z,97672.08
2023-01-17T06:11:18.093Z,97679.75
2023-01-17T06:17:01.500Z,97683.64
2023-01-17T06:22:44.710Z,97693.36
2023-01-17T06:28:16.898Z,97697.70
2023-01-17T06:33:38.952Z,97700.67
2023-01-17T06:39:18.822Z,97700.11
2023-01-17T06:44:23.189Z,97708.38
2023-01-17T06:49:29.055Z,97714.07
2023-01-17T06:54:49.339Z,97721.23
2023-01-17T07:00:04.839Z,97730.95
2023-01-17T07:05:20.528Z,97740.19
2023-01-17T07:10:30.982Z,97754.61
2023-01-17T07:15:37.185Z,97754.80
2023-01-17T07:20:47.453Z,97757.69
2023-01-17T07:26:11.036Z,97762.87
2023-01-17T07:31:16.791Z,97764.48
2023-01-17T07:36:23.289Z,97772.19
2023-01-17T07:41:26.894Z,97777.81
2023-01-17T07:46:29.949Z,97780.91
2023-01-17T07:51:35.774Z,97783.14
2023-01-17T07:56:45.514Z,97794.63
2023-01-17T08:01:59.881Z,97797.64
2023-01-17T08:07:07.852Z,97801.77
2023-01-17T08:12:15.932Z,97803.67
2023-01-17T08:17:38.200Z,97805.18
2023-01-17T08:22:43.918Z,97808.68
2023-01-17T08:27:58.857Z,97810.02
2023-01-17T08:33:17.397Z,97818.74
2023-01-17T08:38:23.619Z,97828.38
2023-01-17T08:43:34.396Z,97831.94
2023-01-17T08:48:43.144Z,97835.01
2023-01-17T08:54:14.676Z,97844.86
2023-01-17T08:59:43.570Z,97846.39
2023-01-17T09:04:52.134Z,97855.05
2023-01-17T09:10:44.288Z,97861.58
2023-01-17T09:16:05.381Z,97879.00
2023-01-17T09:21:29.611Z,97873.48
2023-01-17T09:27:22.112Z,97884.02
2023-01-17T09:32:44.796Z,97897.98
2023-01-17T09:37:55.312Z,97908.96
2023-01-17T09:43:41.021Z,97916.17
2023-01-17T09:48:52.668Z,97937.95
2023-01-17T09:54:06.090Z,97945.13
2023-01-17T09:59:36.171Z,97953.25
2023-01-17T10:05:08.849Z,97960.33
2023-01-17T10:10:26.237Z,97964.36
2023-01-17T10:15:54.218Z,97972.58
2023-01-17T10:21:40.753Z,97979.89
2023-01-17T10:26:56.233Z,97985.81
2023-01-17T10:32:34.265Z,98000.68
2023-01-17T10:38:03.543Z,98004.94
2023-01-17T10:44:08.061Z,98022.97
2023-01-17T10:49:47.341Z,98030.66
2023-01-17T10:55:18.596Z,98035.48
2023-01-17T11:01:20.590Z,98036.73
2023-01-17T11:06:57.085Z,98048.16
2023-01-17T11:12:39.545Z,98047.80
2023-01-17T11:18:05.392Z,98059.17
2023-01-17T11:23:30.276Z,98062.84
2023-01-17T11:28:41.489Z,98071.10
2023-01-17T11:34:05.366Z,98073.70
2023-01-17T11:39:48.048Z,98085.14
2023-01-17T11:44:53.457Z,98094.09
2023-01-17T11:50:15.994Z,98105.48
2023-01-17T11:55:47.247Z,98113.30
2023-01-17T12:01:27.196Z,98108.95
2023-01-17T12:06:56.800Z,98108.56
2023-01-17T12:12:51.962Z,98111.80
2023-01-17T12:18:41.687Z,98109.14
2023-01-17T12:24:52.509Z,98113.83
2023-01-17T12:30:32.575Z,98122.79
2023-01-17T12:35:53.118Z,98125.06
2023-01-17T12:41:23.534Z,98138.16
2023-01-17T12:47:04.534Z,98141.66
2023-01-17T12:52:28.632Z,98156.41
2023-01-17T12:57:57.537Z,98160.73
2023-01-17T13:03:49.544Z,98164.78
2023-01-17T13:09:00.789Z,98166.85
2023-01-17T13:14:12.700Z,98174.67
2023-01-17T13:19:46.100Z,98173.14
2023-01-17T13:25:44.298Z,98183.77
2023-01-17T13:30:58.942Z,98190.69
2023-01-17T13:37:08.785Z,98198.52
2023-01-17T13:42:36.144Z,98203.95
2023-01-17T13:47:44.279Z,98212.23
2023-01-17T13:52:52.105Z,98221.70
2023-01-17T13:57:59.877Z,98231.69
2023-01-17T14:03:12.159Z,98237.27
2023-01-17T14:08:21.992Z,98241.36
2023-01-17T14:13:37.252Z,98243.96
2023-01-17T14:18:55.922Z,98251.54
2023-01-17T14:24:25.082Z,98263.20
2023-01-17T14:29:50.720Z,98279.98
2023-01-17T14:34:57.398Z,98291.72
2023-01-17T14:40:41.258Z,98298.79
2023-01-17T14:46:10.629Z,98308.60
2023-01-17T14:51:35.565Z,98312.77
2023-01-17T14:56:46.546Z,98323.64
2023-01-17T15:02:18.738Z,98322.52
2023-01-17T15:07:56.521Z,98323.41
2023-01-17T15:13:42.711Z,98325.87
2023-01-17T15:19:00.350Z,98336.89
2023-01-17T15:24:39.874Z,98344.14
2023-01-17T15:29:48.217Z,98347.77
2023-01-17T15:35:03.043Z,98358.28
2023-01-17T15:41:05.146Z,98359.49
2023-01-17T15:46:50.530Z,98365.14
2023-01-17T15:52:04.803Z,98364.73
2023-01-17T15:57:47.908Z,98363.59
2023-01-17T16:03:22.063Z,98373.00
2023-01-17T16:08:39.604Z,98377.98
2023-01-17T16:13:47.260Z,98377.78
2023-01-17T16:18:59.075Z,98382.63
2023-01-17T16:24:12.345Z,98390.21
2023-01-17T16:29:18.414Z,98389.55
2023-01-17T16:34:29.164Z,98387.54
2023-01-17T16:39:47.641Z,98392.88
2023-01-17T16:45:00.847Z,98398.05
2023-01-17T16:50:18.056Z,98408.13
2023-01-17T16:55:32.781Z,98403.29
2023-01-17T17:00:49.350Z,98409.54
2023-01-17T17:06:00.823Z,98408.95
2023-01-17T17:11:24.928Z,98407.90
2023-01-17T17:16:31.099Z,98416.27
2023-01-17T17:21:49.239Z,98415.86
2023-01-17T17:26:57.197Z,98427.04
2023-01-17T17:32:11.461Z,98429.33
2023-01-17T17:37:30.298Z,98430.57
2023-01-17T17:42:39.015Z,98442.45
2023-01-17T17:47:44.795Z,98450.25
2023-01-17T17:52:53.766Z,98452.61
2023-01-17T17:58:02.096Z,98454.36
2023-01-17T18:03:20.548Z,98457.59
2023-01-17T18:09:23.974Z,98463.13
2023-01-17T18:15:27.660Z,98472.68
2023-01-17T18:21:23.394Z,98469.48
2023-01-17T18:27:27.112Z,98474.83
2023-01-17T18:33:30.975Z,98471.69
2023-01-17T18:39:37.664Z,98472.59
2023-01-17T18:45:39.917Z,98470.13
2023-01-17T18:51:43.307Z,98472.35
2023-01-17T18:57:45.973Z,98486.85
2023-01-17T19:03:49.844Z,98489.45
2023-01-17T19:09:47.074Z,98494.05
2023-01-17T19:15:50.834Z,98497.66
2023-01-17T19:21:54.284Z,98493.50
2023-01-17T19:27:58.122Z,98502.67
2023-01-17T19:34:01.703Z,98509.67
2023-01-17T19:40:05.295Z,98512.61
2023-01-17T19:46:08.969Z,98516.84
2023-01-17T19:51:35.900Z,98518.44
2023-01-17T19:57:39.306Z,98516.03
2023-01-17T20:03:42.760Z,98520.73
2023-01-17T20:09:46.159Z,98525.45
2023-01-17T20:15:32.914Z,98528.79
2023-01-17T20:21:36.355Z,98531.73
2023-01-17T20:27:40.110Z,98534.46
2023-01-17T20:33:43.124Z,98532.70
2023-01-17T20:39:46.570Z,98533.20
2023-01-17T20:45:50.185Z,98535.77
2023-01-17T20:51:53.567Z,98546.69
2023-01-17T20:57:49.610Z,98560.25
2023-01-17T21:03:52.992Z,98568.67
2023-01-17T21:09:56.464Z,98572.45
2023-01-17T21:15:52.659Z,98587.34
2023-01-17T21:21:56.210Z,98610.66
2023-01-17T21:27:59.851Z,98618.59
2023-01-17T21:34:03.258Z,98626.83
2023-01-17T21:40:06.701Z,98640.01
2023-01-17T21:46:08.860Z,98652.31
2023-01-17T21:52:15.066Z,98658.77
2023-01-17T21:58:16.863Z,98659.02
2023-01-17T22:04:20.042Z,98662.71
2023-01-17T22:10:23.717Z,98664.41
2023-01-17T22:16:17.389Z,98669.27
2023-01-17T22:22:13.959Z,98671.20
2023-01-17T22:28:07.366Z,98673.93
2023-01-17T22:34:04.611Z,98668.36
2023-01-17T22:40:08.073Z,98681.34
2023-01-17T22:46:11.826Z,98672.12
2023-01-17T22:52:15.314Z,98676.10
2023-01-17T22:58:18.717Z,98669.16
2023-01-17T23:04:14.822Z,98662.31
2023-01-17T23:10:18.248Z,98663.16
2023-01-17T23:16:20.285Z,98662.00
2023-01-17T23:22:14.819Z,98658.75
2023-01-17T23:28:32.697Z,98648.99
2023-01-17T23:34:36.089Z,98642.78
2023-01-17T23:40:39.961Z,98645.77
2023-01-17T23:46:43.384Z,98643.30
2023-01-17T23:52:47.181Z,98630.09
2023-01-17T23:58:43.705Z,98622.73
